Mississippiborg — PCGZ — position and weather

sailwx.info

Track history (hours):
 
Tides and Currents Weather Stations Pressure Air Temp Water Temp Dewpoint Dewpoint Depression Visibility Wind Speed Wind Dir Waves Ship Positions

Mississippiborg

Last reported at 2018-May-19 16:03 UTC. Time now 2018-May-20 09:36 UTC.
Position N 37°13' W 001°04'.

Length 80 m; draft 5.1 m.

Type: Ship (hazmat cat B). MMSI: 244836543.

Date/timePositionNaut miles runAvg speedWind from/ knotsBaromVisibWave heightAir tempDewpointWater temp
2018-May-19 16:03N 37°13' W 001°04'112.1
2018-May-19 15:56N 37°14' W 001°03'512.3
2018-May-19 15:30N 37°17' W 000°58'712.3
2018-May-19 14:58N 37°22' W 000°52'612.0
2018-May-19 14:30N 37°25' W 000°46'611.7
2018-May-19 14:00N 37°29' W 000°41'611.1
2018-May-19 13:30N 37°33' W 000°35'510.6
2018-May-19 13:00N 37°37' W 000°31'510.9
2018-May-19 12:30N 37°41' W 000°27'711.0
2018-May-19 11:52N 37°47' W 000°22'146 2.9
2018-May-17 09:52N 39°12' E 002°10'612.3
2018-May-17 09:21N 39°08' E 002°16'712.3
2018-May-17 08:48N 39°03' E 002°22'412.3
2018-May-17 08:28N 38°60' E 002°26'612.3
2018-May-17 08:00N 38°56' E 002°31'2 2.6
2018-May-17 07:24N 38°54' E 002°32'511.9
2018-May-17 06:57N 38°50' E 002°37'511.9
2018-May-17 06:30N 38°47' E 002°42'  
Track history (hours):
 
Tides and Currents Weather Stations Pressure Air Temp Water Temp Dewpoint Dewpoint Depression Visibility Wind Speed Wind Dir Waves Ship Positions

Mississippiborg

Last reported at 2018-May-19 16:03 UTC. Time now 2018-May-20 09:36 UTC.
Position N 37°13' W 001°04'.

Length 80 m; draft 5.1 m.

Type: Ship (hazmat cat B). MMSI: 244836543.

Date/timePositionNaut miles runAvg speedWind from/ knotsBaromVisibWave heightAir tempDewpointWater temp
2018-May-19 16:03N 37°13' W 001°04'112.1
2018-May-19 15:56N 37°14' W 001°03'512.3
2018-May-19 15:30N 37°17' W 000°58'712.3
2018-May-19 14:58N 37°22' W 000°52'612.0
2018-May-19 14:30N 37°25' W 000°46'611.7
2018-May-19 14:00N 37°29' W 000°41'611.1
2018-May-19 13:30N 37°33' W 000°35'510.6
2018-May-19 13:00N 37°37' W 000°31'510.9
2018-May-19 12:30N 37°41' W 000°27'711.0
2018-May-19 11:52N 37°47' W 000°22'146 2.9
2018-May-17 09:52N 39°12' E 002°10'612.3
2018-May-17 09:21N 39°08' E 002°16'712.3
2018-May-17 08:48N 39°03' E 002°22'412.3
2018-May-17 08:28N 38°60' E 002°26'612.3
2018-May-17 08:00N 38°56' E 002°31'2 2.6
2018-May-17 07:24N 38°54' E 002°32'511.9
2018-May-17 06:57N 38°50' E 002°37'511.9
2018-May-17 06:30N 38°47' E 002°42'  

Dump ship's entire track history